Latest Weather Observations for Tennant Creek

IDD60801

Issued at 7:31 pm CST Tuesday 31 May 2016 (issued every 30 minutes, with the page automatically refreshed every 10 minutes)

About weather observations | Map of weather stations | Latest weather observations for NT | Other Formats
Station Details ID: 015135 Name: TENNANT CREEK AIRPORT Lat: -19.64 Lon: 134.18 Height: 375.7 m
Data from the previous 72 hours. | See also: Recent months at Tennant Creek
Date/Time
CST
Temp
°C
App
Temp
°C
Dew
Point
Rel
Hum
%
Delta-T
°C
Wind Press
QNH
hPa
Press
MSL
hPa
Rain
since 9 am
mm
Dir
 
Spd
km/h
Gust
km/h
Spd
kts
Gust
kts
31/07:30pm 20.5 18.4 11.0 54 5.3 S 13 24 7 13 1020.3 - 0.0
31/07:00pm 20.5 18.1 11.4 56 5.1 S 15 20 8 11 1020.0 - 0.0
31/06:30pm 20.2 16.9 11.5 57 4.9 SSE 20 28 11 15 1019.3 - 0.0
31/06:00pm 19.8 15.9 12.0 60 4.4 SSE 24 32 13 17 1019.0 1017.5 0.0
31/05:58pm 19.7 15.9 12.3 62 4.2 SSE 24 33 13 18 1019.0 - 0.0
31/05:57pm 19.7 15.9 12.3 62 4.2 SSE 24 33 13 18 1019.0 - 0.0
31/05:39pm 19.3 15.3 13.0 67 3.6 S 26 35 14 19 1018.8 - 0.0
31/05:30pm 19.6 15.8 12.4 63 4.1 S 24 43 13 23 1018.8 - 0.0
31/05:00pm 20.7 16.9 12.3 58 4.8 S 24 33 13 18 1018.5 - 0.0
31/04:30pm 21.7 17.9 12.5 56 5.3 S 24 33 13 18 1018.1 - 0.0
31/04:00pm 23.1 19.5 11.7 48 6.5 S 22 30 12 16 1017.5 - 0.0
31/03:30pm 25.3 23.1 10.7 40 8.3 ESE 13 20 7 11 1017.2 - 0.0
31/03:00pm 25.1 22.4 10.4 39 8.3 ESE 15 26 8 14 1017.0 1015.5 0.0
31/02:30pm 25.8 22.7 10.2 37 8.8 E 17 28 9 15 1016.8 - 0.0
31/02:00pm 25.2 22.3 9.8 37 8.6 SE 15 22 8 12 1017.2 - 0.0
31/01:30pm 24.9 21.6 9.4 37 8.6 ESE 17 24 9 13 1018.0 - 0.0
31/01:00pm 24.4 20.6 9.1 37 8.4 ESE 19 26 10 14 1018.6 - 0.0
31/12:30pm 23.6 18.6 8.2 37 8.3 E 24 32 13 17 1019.0 - 0.0
31/12:00pm 22.9 18.8 7.9 38 8.0 ESE 19 26 10 14 1019.5 1018.0 0.0
31/11:30am 22.4 17.7 7.7 38 7.8 ESE 22 30 12 16 1019.8 - 0.0
31/11:00am 21.6 17.3 7.8 41 7.3 ESE 20 30 11 16 1020.4 - 0.0
31/10:30am 21.3 17.1 7.6 41 7.2 ESE 19 26 10 14 1020.8 - 0.0
31/10:00am 20.9 16.6 7.8 42 6.9 ESE 20 32 11 17 1020.9 - 0.0
31/09:30am 20.9 15.8 7.5 42 7.0 E 24 33 13 18 1020.5 - 0.0
31/09:00am 20.4 15.5 7.1 42 6.9 ESE 22 30 12 16 1020.3 1018.8 0.0
31/08:30am 20.3 15.1 7.2 42 6.8 E 24 39 13 21 1019.7 - 0.0
31/08:00am 19.6 14.8 7.5 45 6.3 ESE 22 30 12 16 1020.1 - 0.0
31/07:30am 19.4 15.0 7.2 45 6.3 E 20 30 11 16 1019.2 - 0.0
31/07:00am 19.3 15.1 7.3 45 6.2 ESE 19 26 10 14 1019.2 - 0.0
31/06:30am 19.3 14.4 7.0 44 6.3 ESE 22 30 12 16 1018.5 - 0.0
31/06:00am 19.7 15.7 6.6 42 6.7 ESE 17 26 9 14 1018.5 1016.9 0.0
31/05:30am 20.1 15.7 6.4 41 7.0 E 19 35 10 19 1018.1 - 0.0
31/05:00am 20.5 15.3 5.6 37 7.5 E 22 33 12 18 1017.6 - 0.0
31/04:30am 21.0 16.1 5.0 35 8.0 E 20 30 11 16 1017.5 - 0.0
31/04:00am 21.5 16.2 4.9 33 8.3 ESE 22 32 12 17 1017.4 - 0.0
31/03:30am 21.8 16.8 4.8 33 8.5 E 20 32 11 17 1017.2 - 0.0
31/03:00am 22.3 17.0 5.1 32 8.7 ESE 22 32 12 17 1017.3 1015.8 0.0
31/02:30am 22.6 17.7 5.3 32 8.8 ESE 20 28 11 15 1017.2 - 0.0
31/02:00am 23.1 18.3 5.5 32 9.0 ESE 20 33 11 18 1017.4 - 0.0
31/01:30am 23.6 18.8 5.5 31 9.3 SE 20 33 11 18 1017.5 - 0.0
31/01:00am 24.3 20.5 5.8 30 9.6 SSE 15 26 8 14 1017.9 - 0.0
31/12:30am 24.6 20.6 8.2 35 8.9 ESE 19 26 10 14 1017.0 - 0.0
31/12:00am 25.3 21.7 10.4 39 8.4 ESE 20 28 11 15 1017.0 1015.5 0.0
 
Date/Time
CST
Temp
°C
App
Temp
°C
Dew
Point
Rel
Hum
%
Delta-T
°C
Wind Press
QNH
hPa
Press
MSL
hPa
Rain
since 9 am
mm
Dir
 
Spd
km/h
Gust
km/h
Spd
kts
Gust
kts
30/11:30pm 24.8 23.3 11.8 44 7.5 E 11 13 6 7 1017.0 - 0.0
30/11:00pm 25.1 23.9 11.5 42 7.8 E 9 11 5 6 1017.2 - 0.0
30/10:30pm 25.5 24.3 11.6 41 8.0 E 9 11 5 6 1017.2 - 0.0
30/10:00pm 26.2 25.0 11.5 40 8.5 NE 9 13 5 7 1017.2 - 0.0
30/09:30pm 25.0 23.4 11.6 43 7.7 NE 11 13 6 7 1017.2 - 0.0
30/09:00pm 24.7 24.0 11.4 43 7.6 ENE 6 7 3 4 1017.1 1015.6 0.0
30/08:30pm 24.5 24.0 12.7 47 6.9 NNE 7 7 4 4 1016.8 - 0.0
30/08:00pm 25.4 25.1 12.6 45 7.5 NE 6 7 3 4 1016.7 - 0.0
30/07:30pm 26.6 25.9 11.4 38 8.8 ENE 6 7 3 4 1016.3 - 0.0
30/07:00pm 26.9 26.2 12.0 39 8.7 N 7 7 4 4 1015.9 - 0.0
30/06:30pm 28.3 26.9 11.0 34 10.0 NNE 9 11 5 6 1015.3 - 0.0
30/06:00pm 29.3 27.8 10.4 31 10.9 NNE 9 15 5 8 1015.1 1013.5 0.0
30/05:30pm 30.4 28.6 9.6 27 11.9 NNE 9 17 5 9 1014.7 - 0.0
30/05:00pm 31.0 28.5 9.8 27 12.2 NNE 13 22 7 12 1014.4 - 0.0
30/04:30pm 30.8 28.8 10.2 28 11.9 NNE 11 20 6 11 1014.2 - 0.0
30/04:00pm 30.9 27.2 9.6 26 12.2 N 19 28 10 15 1014.1 - 0.0
30/03:30pm 31.3 28.6 10.5 27 12.1 NE 15 24 8 13 1014.2 - 0.0
30/03:00pm 31.5 27.9 10.6 27 12.2 NNE 20 28 11 15 1014.4 1012.9 0.0
30/02:30pm - - - - - N 17 24 9 13 - - 0.0
30/02:00pm 30.6 28.7 11.7 31 11.2 NE 13 24 7 13 1014.8 - 0.0
30/01:30pm 30.0 27.6 11.5 32 10.9 NNE 15 26 8 14 1015.5 - 0.0
30/01:00pm 30.3 27.0 11.7 31 11.0 NNE 20 26 11 14 1016.2 - 0.0
30/12:30pm 29.7 26.3 11.2 31 10.8 N 20 30 11 16 1016.6 - 0.0
30/12:00pm 30.0 25.8 11.2 31 11.0 N 24 33 13 18 1017.0 1015.5 0.0
30/11:30am 28.3 25.0 10.8 33 10.1 N 19 28 10 15 1017.4 - 0.0
30/11:00am 27.7 24.0 10.1 33 10.0 NNE 20 32 11 17 1017.8 - 0.0
30/10:30am 26.8 23.6 10.0 34 9.5 NE 17 26 9 14 1018.3 - 0.0
30/10:00am 25.2 21.8 9.1 36 8.9 NE 17 24 9 13 1018.8 - 0.0
30/09:30am 24.2 19.6 8.3 36 8.6 NE 22 30 12 16 1018.3 - 0.0
30/09:00am 23.4 19.0 7.4 35 8.5 ENE 20 28 11 15 1018.1 1016.5 0.0
30/08:30am 22.0 17.1 6.8 37 7.9 ENE 22 30 12 16 1017.8 - 0.0
30/08:00am 20.8 16.2 6.6 39 7.3 ENE 20 26 11 14 1017.5 - 0.0
30/07:30am 19.0 15.9 7.1 46 6.1 E 13 20 7 11 1017.3 - 0.0
30/07:00am 18.7 15.2 7.0 46 6.0 E 15 20 8 11 1017.1 - 0.0
30/06:30am 20.1 15.5 6.4 41 7.0 ENE 20 28 11 15 1016.6 - 0.0
30/06:00am 20.6 15.2 6.3 39 7.3 ENE 24 33 13 18 1016.3 1014.7 0.0
30/05:30am 20.8 15.3 6.1 38 7.5 ENE 24 35 13 19 1016.1 - 0.0
30/05:00am 20.7 16.1 6.5 39 7.3 ENE 20 28 11 15 1016.1 - 0.0
30/04:30am 20.7 16.1 6.5 39 7.3 ENE 20 30 11 16 1016.0 - 0.0
30/04:00am 20.6 16.3 7.1 41 7.0 E 19 26 10 14 1016.1 - 0.0
30/03:30am 20.9 16.4 7.0 40 7.2 E 20 26 11 14 1016.2 - 0.0
30/03:00am 21.1 16.9 7.6 41 7.1 E 19 24 10 13 1016.1 1014.5 0.0
30/02:30am 21.5 17.2 7.9 41 7.2 E 20 26 11 14 1015.9 - 0.0
30/02:00am 21.8 18.2 8.3 42 7.2 E 17 22 9 12 1016.0 - 0.0
30/01:30am 22.0 18.5 8.6 42 7.2 E 17 24 9 13 1016.0 - 0.0
30/01:00am 22.2 19.1 8.9 42 7.2 E 15 22 8 12 1016.3 - 0.0
30/12:30am 22.0 19.1 9.8 45 6.7 E 15 17 8 9 1016.4 - 0.0
30/12:00am 22.8 20.4 10.0 44 7.1 E 13 17 7 9 1016.6 1015.1 0.0
 
Date/Time
CST
Temp
°C
App
Temp
°C
Dew
Point
Rel
Hum
%
Delta-T
°C
Wind Press
QNH
hPa
Press
MSL
hPa
Rain
since 9 am
mm
Dir
 
Spd
km/h
Gust
km/h
Spd
kts
Gust
kts
29/11:30pm 23.5 20.7 10.0 42 7.5 E 15 20 8 11 1016.9 - 0.0
29/11:00pm 23.7 21.3 10.1 42 7.6 E 13 17 7 9 1017.1 - 0.0
29/10:30pm 23.7 21.4 10.3 42 7.5 E 13 17 7 9 1017.0 - 0.0
29/10:00pm 24.3 22.1 10.7 42 7.7 E 13 20 7 11 1017.1 - 0.0
29/09:30pm 24.7 23.3 11.0 42 7.8 E 9 11 5 6 1017.5 - 0.0
29/09:00pm 25.2 23.8 11.0 41 8.1 E 9 11 5 6 1017.4 1015.9 0.0
29/08:30pm 24.6 23.3 11.1 42 7.7 E 9 11 5 6 1017.2 - 0.0
29/08:00pm 24.9 23.6 11.3 42 7.8 E 9 11 5 6 1016.9 - 0.0
29/07:30pm 25.3 24.3 10.9 40 8.2 E 7 11 4 6 1016.5 - 0.0
29/07:00pm 25.9 24.5 10.8 38 8.6 E 9 11 5 6 1016.2 - 0.0
29/06:30pm 26.7 25.4 11.1 37 9.0 E 9 11 5 6 1015.8 - 0.0
29/06:00pm 28.0 26.8 11.5 35 9.6 NE 9 15 5 8 1015.5 1013.9 0.0
29/05:30pm 29.0 27.2 10.7 32 10.6 NE 11 15 6 8 1015.2 - 0.0
29/05:00pm 29.4 27.6 10.8 31 10.8 NE 11 15 6 8 1014.8 - 0.0
29/04:30pm 29.8 28.4 10.9 31 11.0 NNE 9 15 5 8 1014.7 - 0.0
29/04:00pm 29.8 28.6 11.6 32 10.7 NNE 9 15 5 8 1014.7 - 0.0
29/03:30pm 30.0 28.8 11.5 32 10.9 NNE 9 15 5 8 1014.8 - 0.0
29/03:00pm 29.6 28.6 11.1 31 10.8 NNE 7 20 4 11 1015.1 1013.5 0.0
29/02:30pm 29.3 27.4 10.4 31 10.9 ENE 11 22 6 12 1015.4 - 0.0
29/02:00pm 30.1 27.8 10.4 29 11.4 NNE 13 22 7 12 1015.7 - 0.0
29/01:30pm 28.6 25.7 9.8 31 10.7 NE 15 24 8 13 1016.1 - 0.0
29/01:00pm 28.0 24.8 8.5 29 10.8 NE 15 26 8 14 1016.6 - 0.0
29/12:30pm 27.5 23.6 8.8 30 10.4 NE 19 26 10 14 1017.2 - 0.0
29/12:00pm 27.2 22.9 7.2 28 10.8 ENE 19 28 10 15 1017.3 1015.8 0.0
29/11:30am 26.4 21.5 4.9 25 11.1 ENE 20 30 11 16 1017.8 - 0.0
29/11:00am 25.7 19.4 3.9 24 11.0 ENE 26 35 14 19 1018.2 - 0.0
29/10:30am 24.5 17.7 3.3 25 10.5 ENE 28 39 15 21 1018.5 - 0.0
29/10:00am 23.1 16.2 2.7 26 9.9 ENE 28 41 15 22 1018.7 - 0.0
29/09:30am 22.4 15.2 2.8 27 9.5 E 30 39 16 21 1018.8 - 0.0
29/09:00am 21.1 13.8 2.4 29 8.9 E 30 41 16 22 1018.6 1017.0 0.0
29/08:30am 20.1 13.2 2.6 31 8.3 E 28 33 15 18 1018.3 - 0.0
29/08:00am 18.9 13.2 2.8 34 7.6 E 22 30 12 16 1018.3 - 0.0
29/07:30am 18.0 12.6 2.6 35 7.2 E 20 28 11 15 1018.0 - 0.0
29/07:00am 17.7 12.0 3.0 37 6.9 E 22 30 12 16 1017.5 - 0.0
29/06:30am 17.9 12.2 3.0 37 7.0 E 22 30 12 16 1017.2 - 0.0
29/06:00am 17.9 12.7 3.6 38 6.8 E 20 28 11 15 1016.9 1015.4 0.0
29/05:30am 18.3 13.1 3.7 38 7.0 E 20 28 11 15 1016.7 - 0.0
29/05:00am 18.7 13.1 3.7 37 7.2 E 22 28 12 15 1016.8 - 0.0
29/04:30am 19.1 13.6 4.0 37 7.3 E 22 33 12 18 1016.5 - 0.0
29/04:00am 19.3 14.3 4.4 37 7.3 E 20 28 11 15 1016.4 - 0.0
29/03:30am 19.5 14.4 4.1 36 7.5 E 20 30 11 16 1016.3 - 0.0
29/03:00am 19.6 14.7 4.2 36 7.5 E 19 26 10 14 1016.2 1014.6 0.0
29/02:30am 19.6 14.6 4.8 37 7.3 E 20 28 11 15 1016.1 - 0.0
29/02:00am 19.8 15.1 5.1 38 7.3 E 19 26 10 14 1016.2 - 0.0
29/01:30am 19.8 15.5 5.4 39 7.2 E 17 24 9 13 1016.1 - 0.0
29/01:00am 20.2 15.6 5.5 38 7.4 E 19 26 10 14 1016.3 - 0.0
29/12:30am 20.5 15.9 5.6 37 7.5 E 19 24 10 13 1016.3 - 0.0
29/12:00am 20.7 17.3 5.7 37 7.6 E 13 22 7 12 1016.4 1014.9 0.0
 
Date/Time
CST
Temp
°C
App
Temp
°C
Dew
Point
Rel
Hum
%
Delta-T
°C
Wind Press
QNH
hPa
Press
MSL
hPa
Rain
since 9 am
mm
Dir
 
Spd
km/h
Gust
km/h
Spd
kts
Gust
kts
28/11:30pm 20.7 16.5 5.7 37 7.6 E 17 22 9 12 1016.5 - 0.0
28/11:00pm 21.2 17.4 5.9 37 7.8 E 15 24 8 13 1016.9 - 0.0
28/10:30pm 21.4 17.6 5.9 36 7.9 E 15 20 8 11 1017.1 - 0.0
28/10:00pm 22.0 18.2 6.0 35 8.2 E 15 22 8 12 1017.1 - 0.0
28/09:30pm 21.4 18.6 7.0 39 7.5 E 11 13 6 7 1017.1 - 0.0
28/09:00pm 21.8 18.7 7.1 38 7.7 E 13 17 7 9 1017.1 1015.6 0.0
28/08:30pm 22.2 19.8 7.1 37 7.9 E 9 13 5 7 1016.9 - 0.0
28/08:00pm 22.4 19.7 7.2 37 8.0 E 11 15 6 8 1016.7 - 0.0

Other Formats:

Comma delimited format used in spreadsheet applications
http://www.bom.gov.au/fwo/IDD60801/IDD60801.94238.axf

JavaScript Object Notation format (JSON) in row-major order
http://www.bom.gov.au/fwo/IDD60801/IDD60801.94238.json